createdAt,value
2017-11-17T00:00:19.332Z,4.89
2017-11-17T00:01:29.485Z,4.77
2017-11-17T00:02:39.631Z,4.86
2017-11-17T00:03:49.739Z,4.8
2017-11-17T00:05:00.191Z,4.81
2017-11-17T00:06:10.075Z,4.86
2017-11-17T00:07:20.418Z,4.85
2017-11-17T00:08:30.542Z,4.89
2017-11-17T00:09:40.688Z,4.81
2017-11-17T00:10:50.935Z,4.85
2017-11-17T00:12:01.093Z,4.83
2017-11-17T00:13:11.259Z,4.93
2017-11-17T00:14:21.346Z,4.92
2017-11-17T00:15:31.472Z,4.93
2017-11-17T00:16:41.609Z,4.92
2017-11-17T00:17:51.730Z,4.98
2017-11-17T00:19:01.863Z,5.03
2017-11-17T00:20:11.773Z,4.99
2017-11-17T00:21:22.001Z,5.04
2017-11-17T00:22:32.122Z,4.98
2017-11-17T00:23:42.043Z,5
2017-11-17T00:24:51.824Z,5
2017-11-17T00:26:01.983Z,4.95
2017-11-17T00:27:12.106Z,4.99
2017-11-17T00:28:21.877Z,4.93
2017-11-17T00:29:31.748Z,4.99
2017-11-17T00:30:41.896Z,5.03
2017-11-17T00:31:52.066Z,4.99
2017-11-17T00:33:02.216Z,5.04
2017-11-17T00:34:12.351Z,5.04
2017-11-17T00:35:22.194Z,5.1
2017-11-17T00:36:32.344Z,5.11
2017-11-17T00:37:42.490Z,5.08
2017-11-17T00:38:52.413Z,5.07
2017-11-17T00:40:02.570Z,5.1
2017-11-17T00:41:12.432Z,5.1
2017-11-17T00:42:22.548Z,5.14
2017-11-17T00:43:32.716Z,5.1
2017-11-17T00:44:42.580Z,5.13
2017-11-17T00:45:52.709Z,5.06
2017-11-17T00:47:03.911Z,5.08
2017-11-17T00:48:13.752Z,5.14
2017-11-17T00:49:23.864Z,5.21
2017-11-17T00:50:33.773Z,5.18
2017-11-17T00:51:43.637Z,5.21
2017-11-17T00:52:54.506Z,5.24
2017-11-17T00:54:04.680Z,5.22
2017-11-17T00:55:14.826Z,5.31
2017-11-17T00:56:24.942Z,5.17
2017-11-17T00:57:35.057Z,5.25
2017-11-17T00:58:45.310Z,5.21
2017-11-17T00:59:55.202Z,5.24
2017-11-17T01:01:05.084Z,5.31
2017-11-17T01:02:15.189Z,5.32
2017-11-17T01:03:24.957Z,5.31
2017-11-17T01:04:34.563Z,5.32
2017-11-17T01:05:44.354Z,5.21
2017-11-17T01:06:54.278Z,5.29
2017-11-17T01:08:04.445Z,5.31
2017-11-17T01:09:14.349Z,5.29
2017-11-17T01:10:24.468Z,5.4
2017-11-17T01:11:34.345Z,5.4
2017-11-17T01:12:44.465Z,5.46
2017-11-17T01:13:54.342Z,5.43
2017-11-17T01:15:04.455Z,5.43
2017-11-17T01:16:14.234Z,5.46
2017-11-17T01:17:24.377Z,5.5
2017-11-17T01:18:34.559Z,5.5
2017-11-17T01:19:44.511Z,5.46
2017-11-17T01:20:54.648Z,5.54
2017-11-17T01:22:04.781Z,5.54
2017-11-17T01:23:14.995Z,5.53
2017-11-17T01:24:25.192Z,5.59
2017-11-17T01:25:35.379Z,5.56
2017-11-17T01:26:45.568Z,5.56
2017-11-17T01:27:55.162Z,5.51
2017-11-17T01:29:05.281Z,5.68
2017-11-17T01:30:15.417Z,5.65
2017-11-17T01:31:25.538Z,5.69
2017-11-17T01:32:36.111Z,5.68
2017-11-17T01:33:46.231Z,5.67
2017-11-17T01:34:56.336Z,5.69
2017-11-17T01:36:05.589Z,5.72
2017-11-17T01:37:15.697Z,5.77
2017-11-17T01:38:25.879Z,5.8
2017-11-17T01:39:35.723Z,5.8
2017-11-17T01:40:46.051Z,5.82
2017-11-17T01:41:56.171Z,5.83
2017-11-17T01:43:06.033Z,5.86
2017-11-17T01:44:16.082Z,5.88
2017-11-17T01:45:26.244Z,5.75
2017-11-17T01:46:36.387Z,5.86
2017-11-17T01:47:46.545Z,5.93
2017-11-17T01:48:56.433Z,5.91
2017-11-17T01:50:06.585Z,5.83
2017-11-17T01:51:16.521Z,5.9
2017-11-17T01:52:26.642Z,5.83
2017-11-17T01:53:36.840Z,5.88
2017-11-17T01:54:46.434Z,5.77
2017-11-17T01:55:56.613Z,5.77
2017-11-17T01:57:06.971Z,5.93
2017-11-17T01:58:17.136Z,5.93
2017-11-17T01:59:26.675Z,5.94
2017-11-17T02:00:36.807Z,5.88
2017-11-17T02:01:46.945Z,5.9
2017-11-17T02:02:56.789Z,5.9
2017-11-17T02:04:06.675Z,5.91
2017-11-17T02:05:16.829Z,5.9
2017-11-17T02:06:26.495Z,6.03
2017-11-17T02:07:36.368Z,5.91
2017-11-17T02:08:46.486Z,5.98
2017-11-17T02:09:56.583Z,6.08
2017-11-17T02:11:06.724Z,6.03
2017-11-17T02:12:16.948Z,5.93
2017-11-17T02:13:28.057Z,5.86
2017-11-17T02:14:38.213Z,5.99
2017-11-17T02:15:48.362Z,5.86
2017-11-17T02:16:57.846Z,5.94
2017-11-17T02:18:07.436Z,6.01
2017-11-17T02:19:17.025Z,5.86
2017-11-17T02:20:27.132Z,5.91
2017-11-17T02:21:37.285Z,5.96
2017-11-17T02:22:47.552Z,5.98
2017-11-17T02:23:57.154Z,5.91
2017-11-17T02:25:06.744Z,5.91
2017-11-17T02:26:16.517Z,5.99
2017-11-17T02:27:26.407Z,5.98
2017-11-17T02:28:36.286Z,5.98
2017-11-17T02:29:46.462Z,5.96
2017-11-17T02:30:56.616Z,5.99
2017-11-17T02:32:06.747Z,5.98
2017-11-17T02:33:16.995Z,5.94
2017-11-17T02:34:27.124Z,5.98
2017-11-17T02:35:37.001Z,5.96
2017-11-17T02:36:46.889Z,5.99
2017-11-17T02:37:57.044Z,6.02
2017-11-17T02:39:07.190Z,5.99
2017-11-17T02:40:17.085Z,5.94
2017-11-17T02:41:27.224Z,5.94
2017-11-17T02:42:37.582Z,5.96
2017-11-17T02:43:47.883Z,6.01
2017-11-17T02:44:58.022Z,5.98
2017-11-17T02:46:08.143Z,6.01
2017-11-17T02:47:18.006Z,5.98
2017-11-17T02:48:28.138Z,5.98
2017-11-17T02:49:38.037Z,5.99
2017-11-17T02:50:48.170Z,6.01
2017-11-17T02:51:58.180Z,6.09
2017-11-17T02:53:08.291Z,6.03
2017-11-17T02:54:18.417Z,6.08
2017-11-17T02:55:28.568Z,6.06
2017-11-17T02:56:38.672Z,6.02
2017-11-17T02:57:48.860Z,6.11
2017-11-17T02:58:58.608Z,6.05
2017-11-17T03:00:08.461Z,6.06
2017-11-17T03:01:18.336Z,6.06
2017-11-17T03:02:28.442Z,6.08
2017-11-17T03:03:38.560Z,6.19
2017-11-17T03:04:48.334Z,6.16
2017-11-17T03:05:58.434Z,6.08
2017-11-17T03:07:07.929Z,6.16
2017-11-17T03:08:49.994Z,6.16
2017-11-17T03:10:00.226Z,6.17
2017-11-17T03:11:10.467Z,6.16
2017-11-17T03:12:20.673Z,6.16
2017-11-17T03:13:30.276Z,6.14
2017-11-17T03:14:40.494Z,6.14
2017-11-17T03:15:50.640Z,6.19
2017-11-17T03:17:00.766Z,6.2
2017-11-17T03:18:10.652Z,6.21
2017-11-17T03:19:20.401Z,6.05
2017-11-17T03:20:30.570Z,6.14
2017-11-17T03:21:40.434Z,6.19
2017-11-17T03:22:50.355Z,6.17
2017-11-17T03:24:00.477Z,6.14
2017-11-17T03:25:09.773Z,6.11
2017-11-17T03:26:19.643Z,6.12
2017-11-17T03:27:29.754Z,6.17
2017-11-17T03:28:39.704Z,6.14
2017-11-17T03:29:49.647Z,6.14
2017-11-17T03:30:59.913Z,6.09
2017-11-17T03:32:09.723Z,6.12
2017-11-17T03:33:19.869Z,6.12
2017-11-17T03:34:30.023Z,6.17
2017-11-17T03:35:40.258Z,6.16
2017-11-17T03:36:50.464Z,6.05
2017-11-17T03:38:00.696Z,6.11
2017-11-17T03:39:10.906Z,6.05
2017-11-17T03:40:21.116Z,6.05
2017-11-17T03:41:31.224Z,6.08
2017-11-17T03:42:41.332Z,6.05
2017-11-17T03:43:51.448Z,6.16
2017-11-17T03:45:01.651Z,6.06
2017-11-17T03:46:11.801Z,6.09
2017-11-17T03:47:21.983Z,6.06
2017-11-17T03:48:32.129Z,6.05
2017-11-17T03:49:42.243Z,6.14
2017-11-17T03:50:52.094Z,6.17
2017-11-17T03:52:02.346Z,6.12
2017-11-17T03:53:12.522Z,6.17
2017-11-17T03:54:22.635Z,6.17
2017-11-17T03:55:32.748Z,6.09
2017-11-17T03:56:42.524Z,6.19
2017-11-17T03:57:52.681Z,6.17
2017-11-17T03:59:02.441Z,6.17
2017-11-17T04:00:12.572Z,6.12
2017-11-17T04:01:22.413Z,6.24
2017-11-17T04:02:32.276Z,6.21
2017-11-17T04:03:42.394Z,6.16
2017-11-17T04:04:52.370Z,6.24
2017-11-17T04:06:01.989Z,6.12
2017-11-17T04:07:11.589Z,6.24
2017-11-17T04:08:21.437Z,6.3
2017-11-17T04:09:31.194Z,6.26
2017-11-17T04:10:40.801Z,6.31
2017-11-17T04:11:50.761Z,6.35
2017-11-17T04:13:00.537Z,6.36
2017-11-17T04:14:10.297Z,6.28
2017-11-17T04:15:20.546Z,6.34
2017-11-17T04:16:30.664Z,6.41
2017-11-17T04:17:40.788Z,6.28
2017-11-17T04:18:50.652Z,6.36
2017-11-17T04:20:00.429Z,6.3
2017-11-17T04:21:10.277Z,6.38
2017-11-17T04:22:20.386Z,6.36
2017-11-17T04:23:30.251Z,6.36
2017-11-17T04:24:40.035Z,6.31
2017-11-17T04:25:49.960Z,6.26
2017-11-17T04:27:00.148Z,6.3
2017-11-17T04:28:10.302Z,6.34
2017-11-17T04:29:20.414Z,6.31
2017-11-17T04:30:30.333Z,6.26
2017-11-17T04:31:40.466Z,6.41
2017-11-17T04:32:50.615Z,6.45
2017-11-17T04:34:00.735Z,6.26
2017-11-17T04:35:10.427Z,6.35
2017-11-17T04:36:19.921Z,6.44
2017-11-17T04:37:30.062Z,6.41
2017-11-17T04:38:40.240Z,6.38
2017-11-17T04:39:50.375Z,6.52
2017-11-17T04:41:00.596Z,6.44
2017-11-17T04:42:10.435Z,6.45
2017-11-17T04:43:20.306Z,6.46
2017-11-17T04:44:30.443Z,6.45
2017-11-17T04:45:40.251Z,6.44
2017-11-17T04:46:50.377Z,6.41
2017-11-17T04:48:00.481Z,6.44
2017-11-17T04:49:10.629Z,6.35
2017-11-17T04:50:20.473Z,6.31
2017-11-17T04:51:30.330Z,6.38
2017-11-17T04:52:40.032Z,6.3
2017-11-17T04:53:50.181Z,6.28
2017-11-17T04:55:00.303Z,6.31
2017-11-17T04:56:10.642Z,6.41
2017-11-17T04:57:20.767Z,6.35
2017-11-17T04:58:30.983Z,6.3
2017-11-17T04:59:41.139Z,6.38
2017-11-17T05:00:51.281Z,6.3
2017-11-17T05:02:01.455Z,6.31
2017-11-17T05:03:11.607Z,6.38
2017-11-17T05:04:21.714Z,6.34
2017-11-17T05:05:31.827Z,6.44
2017-11-17T05:06:41.775Z,6.3
2017-11-17T05:07:51.848Z,6.26
2017-11-17T05:09:01.974Z,6.26
2017-11-17T05:10:12.142Z,6.31
2017-11-17T05:11:22.377Z,6.36
2017-11-17T05:12:31.926Z,6.34
2017-11-17T05:13:42.108Z,6.36
2017-11-17T05:14:52.315Z,6.35
2017-11-17T05:16:02.427Z,6.35
2017-11-17T05:17:12.572Z,6.31
2017-11-17T05:18:22.736Z,6.31
2017-11-17T05:19:32.843Z,6.34
2017-11-17T05:20:42.666Z,6.24
2017-11-17T05:21:52.871Z,6.28
2017-11-17T05:23:03.072Z,6.3
2017-11-17T05:24:13.502Z,6.28
2017-11-17T05:25:23.629Z,6.31
2017-11-17T05:26:33.510Z,6.28
2017-11-17T05:27:43.634Z,6.3
2017-11-17T05:28:53.831Z,6.34
2017-11-17T05:30:03.781Z,6.27
2017-11-17T05:31:13.891Z,6.31
2017-11-17T05:32:24.003Z,6.27
2017-11-17T05:33:33.880Z,6.34
2017-11-17T05:34:43.998Z,6.31
2017-11-17T05:35:54.171Z,6.3
2017-11-17T05:37:04.392Z,6.27
2017-11-17T05:38:14.572Z,6.27
2017-11-17T05:39:24.702Z,6.31
2017-11-17T05:40:34.611Z,6.35
2017-11-17T05:41:44.746Z,6.35
2017-11-17T05:42:54.885Z,6.36
2017-11-17T05:44:04.477Z,6.26
2017-11-17T05:45:14.616Z,6.31
2017-11-17T05:46:24.484Z,6.36
2017-11-17T05:47:34.624Z,6.31
2017-11-17T05:48:44.733Z,6.31
2017-11-17T05:49:54.592Z,6.31
2017-11-17T05:51:04.729Z,6.34
2017-11-17T05:52:15.058Z,6.28
2017-11-17T05:53:24.905Z,6.31
2017-11-17T05:54:35.215Z,6.38
2017-11-17T05:55:45.098Z,6.36
2017-11-17T05:56:54.957Z,6.36
2017-11-17T05:58:05.071Z,6.3
2017-11-17T05:59:15.182Z,6.31
2017-11-17T06:00:25.411Z,6.31
2017-11-17T06:01:35.254Z,6.27
2017-11-17T06:02:45.120Z,6.26
2017-11-17T06:03:55.256Z,6.28
2017-11-17T06:05:05.381Z,6.34
2017-11-17T06:06:15.515Z,6.3
2017-11-17T06:07:25.366Z,6.27
2017-11-17T06:08:35.548Z,6.36
2017-11-17T06:09:45.436Z,6.3
2017-11-17T06:10:55.748Z,6.27
2017-11-17T06:12:05.519Z,6.34
2017-11-17T06:13:15.627Z,6.26
2017-11-17T06:14:25.763Z,6.28
2017-11-17T06:15:35.897Z,6.27
2017-11-17T06:16:46.077Z,6.35
2017-11-17T06:17:55.967Z,6.34
2017-11-17T06:19:06.080Z,6.31
2017-11-17T06:20:16.231Z,6.31
2017-11-17T06:21:26.367Z,6.35
2017-11-17T06:22:36.636Z,6.38
2017-11-17T06:23:46.850Z,6.38
2017-11-17T06:24:57.023Z,6.36
2017-11-17T06:26:06.970Z,6.27
2017-11-17T06:27:16.819Z,6.27
2017-11-17T06:28:26.734Z,6.28
2017-11-17T06:29:36.368Z,6.26
2017-11-17T06:30:46.563Z,6.24
2017-11-17T06:31:56.667Z,6.34
2017-11-17T06:33:06.782Z,6.23
2017-11-17T06:34:16.395Z,6.3
2017-11-17T06:35:26.512Z,6.21
2017-11-17T06:36:36.929Z,6.17
2017-11-17T06:37:47.117Z,6.16
2017-11-17T06:38:57.183Z,6.17
2017-11-17T06:40:06.692Z,6.17
2017-11-17T06:41:16.570Z,6.12
2017-11-17T06:42:26.173Z,6.05
2017-11-17T06:43:35.787Z,6.05
2017-11-17T06:44:46.195Z,6.03
2017-11-17T06:45:56.328Z,6.05
2017-11-17T06:47:06.095Z,6.08
2017-11-17T06:48:15.699Z,6.06
2017-11-17T06:49:25.793Z,6.06
2017-11-17T06:50:36.002Z,5.94
2017-11-17T06:51:45.922Z,5.94
2017-11-17T06:52:56.117Z,5.99
2017-11-17T06:54:05.511Z,5.94
2017-11-17T06:55:15.654Z,6.03
2017-11-17T06:56:25.870Z,6.01
2017-11-17T06:57:36.238Z,5.96
2017-11-17T06:58:46.036Z,5.99
2017-11-17T06:59:56.146Z,6.02
2017-11-17T07:01:06.320Z,5.91
2017-11-17T07:02:16.205Z,5.91
2017-11-17T07:03:26.140Z,5.99
2017-11-17T07:04:35.994Z,5.96
2017-11-17T07:05:46.106Z,6.05
2017-11-17T07:06:55.966Z,6.03
2017-11-17T07:08:05.829Z,5.96
2017-11-17T07:09:15.595Z,5.94
2017-11-17T07:10:25.737Z,6.12
2017-11-17T07:11:35.888Z,6.08
2017-11-17T07:12:46.057Z,6.01
2017-11-17T07:13:55.927Z,6.05
2017-11-17T07:15:06.333Z,6.11
2017-11-17T07:16:15.946Z,6.12
2017-11-17T07:17:26.081Z,6.2
2017-11-17T07:18:35.946Z,6.2
2017-11-17T07:19:45.797Z,6.14
2017-11-17T07:20:55.962Z,6.2
2017-11-17T07:22:05.975Z,6.19
2017-11-17T07:23:15.736Z,6.11
2017-11-17T07:24:25.589Z,6.2
2017-11-17T07:25:35.701Z,6.19
2017-11-17T07:26:45.822Z,6.23
2017-11-17T07:27:55.981Z,6.35
2017-11-17T07:29:06.184Z,6.36
2017-11-17T07:30:16.041Z,6.31
2017-11-17T07:31:25.683Z,6.42
2017-11-17T07:32:36.815Z,6.42
2017-11-17T07:33:46.702Z,6.42
2017-11-17T07:34:56.844Z,6.56
2017-11-17T07:36:07.005Z,6.46
2017-11-17T07:37:17.231Z,6.49
2017-11-17T07:38:27.081Z,6.59
2017-11-17T07:39:37.448Z,6.56
2017-11-17T07:40:47.078Z,6.56
2017-11-17T07:41:57.187Z,6.56
2017-11-17T07:43:07.322Z,6.56
2017-11-17T07:44:17.491Z,6.6
2017-11-17T07:45:27.663Z,6.77
2017-11-17T07:46:37.982Z,7.1
2017-11-17T07:47:48.118Z,7.48
2017-11-17T07:48:57.969Z,7.88
2017-11-17T07:50:07.928Z,8.45
2017-11-17T07:51:18.035Z,8.95
2017-11-17T07:52:28.155Z,9.4
2017-11-17T07:53:37.783Z,9.63
2017-11-17T07:54:47.944Z,9.85
2017-11-17T07:55:58.103Z,10.17
2017-11-17T07:57:08.013Z,9.92
2017-11-17T07:58:18.136Z,9.65
2017-11-17T07:59:28.248Z,9.37
2017-11-17T08:00:38.208Z,9.38
2017-11-17T08:01:48.690Z,9.48
2017-11-17T08:02:58.815Z,9.84
2017-11-17T08:04:08.702Z,10.39
2017-11-17T08:05:18.809Z,10.88
2017-11-17T08:06:28.958Z,11.31
2017-11-17T08:07:38.660Z,11.71
2017-11-17T08:08:48.419Z,12.05
2017-11-17T08:09:57.789Z,12.27
2017-11-17T08:11:07.755Z,12.66
2017-11-17T08:12:17.522Z,12.95
2017-11-17T08:13:27.593Z,13.22
2017-11-17T08:14:37.514Z,13.56
2017-11-17T08:15:47.657Z,13.81
2017-11-17T08:16:57.785Z,14.11
2017-11-17T08:18:07.546Z,14.43
2017-11-17T08:19:17.696Z,14.52
2017-11-17T08:20:27.821Z,14.78
2017-11-17T08:21:37.708Z,15.08
2017-11-17T08:22:47.629Z,15.23
2017-11-17T08:23:57.480Z,15.32
2017-11-17T08:25:07.003Z,15.6
2017-11-17T08:26:16.900Z,15.87
2017-11-17T08:27:27.105Z,16.04
2017-11-17T08:28:37.254Z,16.35
2017-11-17T08:29:47.067Z,16.46
2017-11-17T08:30:56.935Z,16.57
2017-11-17T08:32:07.078Z,16.72
2017-11-17T08:33:17.227Z,16.89
2017-11-17T08:34:27.102Z,16.94
2017-11-17T08:35:36.722Z,17.23
2017-11-17T08:36:46.876Z,17.28
2017-11-17T08:37:56.937Z,17.38
2017-11-17T08:39:07.080Z,17.64
2017-11-17T08:40:17.230Z,17.76
2017-11-17T08:41:27.373Z,17.75
2017-11-17T08:42:37.510Z,17.76
2017-11-17T08:43:47.394Z,17.83
2017-11-17T08:44:57.293Z,17.57
2017-11-17T08:46:06.631Z,17.6
2017-11-17T08:47:16.431Z,17.6
2017-11-17T08:48:26.624Z,17.76
2017-11-17T08:49:36.904Z,17.7
2017-11-17T08:50:46.781Z,17.83
2017-11-17T08:51:56.942Z,17.68
2017-11-17T08:53:07.070Z,17.7
2017-11-17T08:54:17.228Z,17.82
2017-11-17T08:55:27.476Z,17.8
2017-11-17T08:56:37.266Z,18.12
2017-11-17T08:57:47.451Z,18.2
2017-11-17T08:58:57.705Z,18.28
2017-11-17T09:00:07.978Z,18.35
2017-11-17T09:01:17.799Z,18.38
2017-11-17T09:02:27.970Z,18.35
2017-11-17T09:03:38.138Z,18.41
2017-11-17T09:04:48.276Z,18.37
2017-11-17T09:05:58.653Z,18.28
2017-11-17T09:07:08.519Z,18.15
2017-11-17T09:08:18.471Z,18.17
2017-11-17T09:09:28.422Z,18.15
2017-11-17T09:10:38.551Z,18.16
2017-11-17T09:11:48.407Z,18.3
2017-11-17T09:12:58.193Z,18.35
2017-11-17T09:14:08.326Z,18.37
2017-11-17T09:15:18.213Z,18.52
2017-11-17T09:16:28.347Z,18.57
2017-11-17T09:17:38.493Z,18.59
2017-11-17T09:18:48.407Z,18.65
2017-11-17T09:19:58.561Z,18.52
2017-11-17T09:21:08.741Z,18.42
2017-11-17T09:22:18.320Z,18.49
2017-11-17T09:23:28.613Z,18.5
2017-11-17T09:24:38.739Z,18.41
2017-11-17T09:25:48.872Z,18.41
2017-11-17T09:27:02.099Z,18.41
2017-11-17T09:28:12.910Z,18.37
2017-11-17T09:29:25.561Z,18.42
2017-11-17T09:30:35.620Z,18.46
2017-11-17T09:31:45.505Z,18.38
2017-11-17T09:32:55.664Z,18.38
2017-11-17T09:34:05.790Z,18.32
2017-11-17T09:35:15.963Z,18.41
2017-11-17T09:36:26.099Z,18.44
2017-11-17T09:37:36.262Z,18.5
2017-11-17T09:38:45.882Z,18.55
2017-11-17T09:39:55.801Z,18.47
2017-11-17T09:41:05.984Z,18.3
2017-11-17T09:42:16.137Z,18.38
2017-11-17T09:43:26.256Z,18.28
2017-11-17T09:44:36.473Z,18.26
2017-11-17T09:45:46.610Z,18.2
2017-11-17T09:46:56.454Z,18.12
2017-11-17T09:48:06.327Z,18.15
2017-11-17T09:49:16.290Z,18.13
2017-11-17T09:50:26.177Z,18.17
2017-11-17T09:51:36.100Z,18.25
2017-11-17T09:52:46.268Z,18.37
2017-11-17T09:53:56.649Z,18.34
2017-11-17T09:55:06.830Z,18.42
2017-11-17T09:56:16.967Z,18.37
2017-11-17T09:57:27.240Z,18.41
2017-11-17T09:58:37.155Z,18.35
2017-11-17T09:59:47.036Z,18.38
2017-11-17T10:00:56.802Z,18.38
2017-11-17T10:02:06.944Z,18.63
2017-11-17T10:03:16.955Z,18.86
2017-11-17T10:04:27.112Z,18.94
2017-11-17T10:05:36.997Z,19
2017-11-17T10:06:47.121Z,19
2017-11-17T10:07:57.384Z,18.98
2017-11-17T10:09:06.896Z,19
2017-11-17T10:10:16.810Z,19.05
2017-11-17T10:11:26.854Z,19.08
2017-11-17T10:12:37.423Z,19.12
2017-11-17T10:13:47.223Z,18.87
2017-11-17T10:14:57.409Z,18.69
2017-11-17T10:16:07.574Z,18.42
2017-11-17T10:17:17.698Z,18.4
2017-11-17T10:18:27.901Z,18.32
2017-11-17T10:19:37.772Z,18.37
2017-11-17T10:20:47.926Z,18.35
2017-11-17T10:21:58.301Z,18.44
2017-11-17T10:23:08.457Z,18.42
2017-11-17T10:24:18.653Z,18.37
2017-11-17T10:25:28.565Z,18.34
2017-11-17T10:26:38.756Z,18.1
2017-11-17T10:27:48.899Z,17.98
2017-11-17T10:28:59.074Z,17.87
2017-11-17T10:30:09.246Z,17.94
2017-11-17T10:31:18.809Z,17.97
2017-11-17T10:32:28.827Z,18
2017-11-17T10:33:38.958Z,17.95
2017-11-17T10:34:49.209Z,17.98
2017-11-17T10:35:59.423Z,17.97
2017-11-17T10:37:09.316Z,17.98
2017-11-17T10:38:19.481Z,18.05
2017-11-17T10:39:29.466Z,17.98
2017-11-17T10:40:39.641Z,17.95
2017-11-17T10:41:49.816Z,17.94
2017-11-17T10:42:59.956Z,18.01
2017-11-17T10:44:09.921Z,18.15
2017-11-17T10:45:20.131Z,18.28
2017-11-17T10:46:30.299Z,18.19
2017-11-17T10:47:40.520Z,18.19
2017-11-17T10:48:50.805Z,18.2
2017-11-17T10:50:00.995Z,18.23
2017-11-17T10:51:10.892Z,18.44
2017-11-17T10:52:20.802Z,18.46
2017-11-17T10:53:30.583Z,18.59
2017-11-17T10:54:40.400Z,18.55
2017-11-17T10:55:50.175Z,18.53
2017-11-17T10:57:00.080Z,18.49
2017-11-17T10:58:09.963Z,18.46
2017-11-17T10:59:20.319Z,18.23
2017-11-17T11:00:30.188Z,18.4
2017-11-17T11:01:39.746Z,18.35
2017-11-17T11:02:49.905Z,18.25
2017-11-17T11:04:00.138Z,18.16
2017-11-17T11:05:10.076Z,18.3
2017-11-17T11:06:20.018Z,18.2
2017-11-17T11:07:30.398Z,18.16
2017-11-17T11:08:40.675Z,18
2017-11-17T11:09:50.558Z,17.95
2017-11-17T11:11:00.721Z,18.05
2017-11-17T11:12:10.506Z,17.94
2017-11-17T11:13:20.863Z,17.92
2017-11-17T11:14:30.764Z,18.02
2017-11-17T11:15:40.948Z,18.04
2017-11-17T11:16:51.188Z,18.17
2017-11-17T11:18:01.440Z,18.12
2017-11-17T11:19:11.312Z,17.98
2017-11-17T11:20:21.463Z,17.86
2017-11-17T11:21:31.636Z,17.86
2017-11-17T11:22:41.802Z,17.89
2017-11-17T11:23:51.950Z,17.98
2017-11-17T11:25:02.143Z,18
2017-11-17T11:26:12.296Z,17.89
2017-11-17T11:27:22.473Z,17.89
2017-11-17T11:28:32.600Z,17.73
2017-11-17T11:29:42.688Z,17.77
2017-11-17T11:30:52.850Z,17.77
2017-11-17T11:32:02.671Z,17.79
2017-11-17T11:33:12.814Z,17.91
2017-11-17T11:34:22.982Z,17.86
2017-11-17T11:35:32.908Z,17.87
2017-11-17T11:36:43.788Z,17.95
2017-11-17T11:37:53.954Z,17.87
2017-11-17T11:39:03.900Z,17.73
2017-11-17T11:40:14.193Z,17.68
2017-11-17T11:41:24.346Z,17.61
2017-11-17T11:42:34.239Z,17.61
2017-11-17T11:43:44.158Z,17.64
2017-11-17T11:44:54.288Z,17.82
2017-11-17T11:46:03.917Z,17.82
2017-11-17T11:47:14.066Z,17.8
2017-11-17T11:48:24.309Z,17.61
2017-11-17T11:49:34.558Z,17.28
2017-11-17T11:50:44.760Z,17.08
2017-11-17T11:51:54.989Z,16.68
2017-11-17T11:53:04.908Z,16.68
2017-11-17T11:54:15.031Z,16.44
2017-11-17T11:55:25.229Z,16.46
2017-11-17T11:56:35.362Z,16.43
2017-11-17T11:57:45.532Z,16.42
2017-11-17T11:58:55.157Z,16.47
2017-11-17T12:00:04.728Z,16.39
2017-11-17T12:01:14.633Z,16.47
2017-11-17T12:02:24.506Z,16.42
2017-11-17T12:03:34.297Z,16.36
2017-11-17T12:04:44.559Z,16.42
2017-11-17T12:05:54.435Z,16.46
2017-11-17T12:07:04.323Z,16.44
2017-11-17T12:08:14.466Z,16.42
2017-11-17T12:09:24.659Z,16.42
2017-11-17T12:10:34.351Z,16.46
2017-11-17T12:11:44.487Z,16.28
2017-11-17T12:12:54.420Z,16.07
2017-11-17T12:14:04.607Z,15.84
2017-11-17T12:15:14.747Z,15.68
2017-11-17T12:16:24.957Z,15.4
2017-11-17T12:17:34.928Z,15.3
2017-11-17T12:18:45.180Z,15.29
2017-11-17T12:19:55.341Z,15.27
2017-11-17T12:21:05.580Z,15.29
2017-11-17T12:22:15.765Z,15.24
2017-11-17T12:23:25.966Z,15.32
2017-11-17T12:24:35.849Z,15.45
2017-11-17T12:25:46.034Z,15.58
2017-11-17T12:26:55.931Z,15.42
2017-11-17T12:28:06.087Z,15.36
2017-11-17T12:29:15.889Z,15.24
2017-11-17T12:30:26.041Z,14.96
2017-11-17T12:31:36.230Z,14.69
2017-11-17T12:32:46.368Z,14.34
2017-11-17T12:33:56.505Z,14.1
2017-11-17T12:35:06.689Z,13.74
2017-11-17T12:36:16.837Z,13.41
2017-11-17T12:37:26.726Z,13.12
2017-11-17T12:38:36.616Z,12.93
2017-11-17T12:39:46.394Z,12.74
2017-11-17T12:40:56.541Z,12.57
2017-11-17T12:42:06.730Z,12.26
2017-11-17T12:43:16.908Z,12.17
2017-11-17T12:44:27.073Z,11.89
2017-11-17T12:45:37.298Z,11.76
2017-11-17T12:46:47.486Z,11.53
2017-11-17T12:47:57.363Z,11.46
2017-11-17T12:49:07.205Z,11.46
2017-11-17T12:50:17.328Z,11.39
2017-11-17T12:51:27.464Z,11.3
2017-11-17T12:52:37.253Z,11.17
2017-11-17T12:53:47.445Z,11.12
2017-11-17T12:54:57.324Z,11.12
2017-11-17T12:56:07.550Z,11.03
2017-11-17T12:57:17.727Z,11
2017-11-17T12:58:28.001Z,11.08
2017-11-17T12:59:37.878Z,11.06
2017-11-17T13:00:47.847Z,11.05
2017-11-17T13:01:57.611Z,11.02
2017-11-17T13:03:39.707Z,10.94
2017-11-17T13:04:49.936Z,10.84
2017-11-17T13:06:00.222Z,10.8
2017-11-17T13:07:10.506Z,10.8
2017-11-17T13:08:20.468Z,10.73
2017-11-17T13:09:30.458Z,10.63
2017-11-17T13:10:40.714Z,10.69
2017-11-17T13:11:50.611Z,10.69
2017-11-17T13:13:00.877Z,10.69
2017-11-17T13:14:11.125Z,10.72
2017-11-17T13:15:21.009Z,10.72
2017-11-17T13:16:30.979Z,10.72
2017-11-17T13:17:41.426Z,10.87
2017-11-17T13:18:51.901Z,10.79
2017-11-17T13:20:02.172Z,10.8
2017-11-17T13:21:12.398Z,10.79
2017-11-17T13:22:22.384Z,10.76
2017-11-17T13:23:32.589Z,10.85
2017-11-17T13:24:43.056Z,10.72
2017-11-17T13:25:52.823Z,10.83
2017-11-17T13:27:02.870Z,10.73
2017-11-17T13:28:13.232Z,10.67
2017-11-17T13:29:23.213Z,10.69
2017-11-17T13:30:33.462Z,10.55
2017-11-17T13:31:43.373Z,10.47
2017-11-17T13:32:53.399Z,10.4
2017-11-17T13:34:03.724Z,10.37
2017-11-17T13:35:13.437Z,10.3
2017-11-17T13:36:23.771Z,10.29
2017-11-17T13:37:34.086Z,10.32
2017-11-17T13:38:44.129Z,10.22
2017-11-17T13:39:54.098Z,10.22
2017-11-17T13:41:04.126Z,10.21
2017-11-17T13:42:14.462Z,10.24
2017-11-17T13:43:24.773Z,10.15
2017-11-17T13:44:34.799Z,10.19
2017-11-17T13:45:45.007Z,10.21
2017-11-17T13:46:55.406Z,10.18
2017-11-17T13:48:05.446Z,10.21
2017-11-17T13:49:15.144Z,10.17
2017-11-17T13:50:25.049Z,10.18
2017-11-17T13:51:35.293Z,10.32
2017-11-17T13:52:45.519Z,10.33
2017-11-17T13:53:55.745Z,10.26
2017-11-17T13:55:05.974Z,10.19
2017-11-17T13:56:16.227Z,10.1
2017-11-17T13:57:26.492Z,9.95
2017-11-17T13:58:36.715Z,10
2017-11-17T13:59:46.959Z,9.98
2017-11-17T14:00:57.217Z,9.89
2017-11-17T14:02:07.425Z,9.84
2017-11-17T14:03:17.050Z,9.78
2017-11-17T14:04:27.012Z,9.65
2017-11-17T14:05:37.401Z,9.58
2017-11-17T14:06:47.372Z,9.55
2017-11-17T14:07:57.358Z,9.45
2017-11-17T14:09:07.600Z,9.34
2017-11-17T14:10:17.867Z,9.3
2017-11-17T14:11:28.112Z,9.34
2017-11-17T14:12:38.340Z,9.23
2017-11-17T14:13:48.593Z,9.23
2017-11-17T14:14:58.839Z,9.16
2017-11-17T14:16:09.083Z,9.05
2017-11-17T14:17:19.436Z,9.11
2017-11-17T14:18:30.087Z,9.04
2017-11-17T14:19:40.972Z,9
2017-11-17T14:20:51.661Z,8.98
2017-11-17T14:22:02.691Z,8.92
2017-11-17T14:23:13.730Z,8.89
2017-11-17T14:24:24.552Z,8.74
2017-11-17T14:25:35.164Z,8.74
2017-11-17T14:26:46.732Z,8.75
2017-11-17T14:27:57.432Z,8.66
2017-11-17T14:29:08.422Z,8.61
2017-11-17T14:30:22.255Z,8.61
2017-11-17T14:31:38.051Z,8.61
2017-11-17T14:32:51.962Z,8.63
2017-11-17T14:34:05.329Z,8.58
2017-11-17T14:35:18.800Z,8.52
2017-11-17T14:36:31.659Z,8.55
2017-11-17T14:37:44.702Z,8.53
2017-11-17T14:38:58.545Z,8.57
2017-11-17T14:40:11.745Z,8.55
2017-11-17T14:41:24.981Z,8.57
2017-11-17T14:42:39.375Z,8.53
2017-11-17T14:43:52.322Z,8.52
2017-11-17T14:45:04.736Z,8.57
2017-11-17T14:46:16.112Z,8.49
2017-11-17T14:47:29.049Z,8.48
2017-11-17T14:48:41.985Z,8.39
2017-11-17T14:49:54.285Z,8.35
2017-11-17T14:51:06.973Z,8.3
2017-11-17T14:52:19.191Z,8.12
2017-11-17T14:53:31.545Z,8.17
2017-11-17T14:54:44.325Z,8.07
2017-11-17T14:55:57.564Z,8.02
2017-11-17T14:57:09.743Z,8.06
2017-11-17T14:58:22.810Z,7.94
2017-11-17T14:59:33.242Z,7.97
2017-11-17T15:00:43.537Z,7.84
2017-11-17T15:01:53.201Z,7.82
2017-11-17T15:03:03.178Z,7.84
2017-11-17T15:04:13.489Z,7.73
2017-11-17T15:05:23.739Z,7.79
2017-11-17T15:06:34.019Z,7.79
2017-11-17T15:07:44.495Z,7.82
2017-11-17T15:08:54.187Z,7.73
2017-11-17T15:10:04.502Z,7.73
2017-11-17T15:11:14.513Z,7.67
2017-11-17T15:12:24.797Z,7.64
2017-11-17T15:13:35.029Z,7.58
2017-11-17T15:14:45.605Z,7.52
2017-11-17T15:15:56.015Z,7.52
2017-11-17T15:17:06.005Z,7.54
2017-11-17T15:18:16.335Z,7.48
2017-11-17T15:19:26.605Z,7.44
2017-11-17T15:20:37.075Z,7.41
2017-11-17T15:21:47.203Z,7.36
2017-11-17T15:22:57.565Z,7.37
2017-11-17T15:24:07.803Z,7.4
2017-11-17T15:25:17.755Z,7.36
2017-11-17T15:26:27.740Z,7.28